ARKANSAS RIVER NAVIGATION REPORT
  LITTLE ROCK DISTRICT - U.S. ARMY CORPS OF ENGINEERS
  GENERATED: 14 AUG 2018 @ 22:35
 
  NOTE: These data are not guaranteed to be valid or correct.
        RELEASES AND FLOWS ARE IN THOUSANDS OF CFS
  _____________________________________________________________________________
 
                  13AUG     13AUG      13AUG           14AUG          14AUG
                  @1200     @2400     AVERAGE      LATEST OBSERVED    PRECIP.
                  HOURS     HOURS      FLOW         DATA AND TIME     (7A-7A)
  _____________________________________________________________________________
 
  LD13 HW-ELEV    391.84    391.76                392.00  @  21:00       .66
  LD13 TW-ELEV    370.47    371.38                372.28  @  21:00
  LD13 RELEASE      0.0       0.0       7.7        15.3   @  21:00
 
  OZA.L&D HW-ELEV 370.55    371.43                371.98  @  21:00      3.40
  OZA.L&D TW-ELEV 337.79    337.90                338.33  @  21:00
  OZA.L&D RELEASE   0.0      13.0       6.1        18.1   @  21:00
 
  DRD.L&D HW-ELEV 337.93    337.77                337.86  @  21:00      2.08
  DRD.L&D TW-ELEV 285.76    285.72                286.36  @  21:00
  DRD.L&D RELEASE  18.3       0.0       8.2         9.5   @  21:00
 
  LD09 HW-ELEV    284.99    285.71                285.76  @  21:00      2.02
  LD09 TW-ELEV    265.34    265.64                266.12  @  21:00
  LD09 RELEASE      6.0      12.0       8.5        22.0   @  21:00
 
  LD08 HW-ELEV    265.29    265.24                265.17  @  21:00       .56
  LD08 TW-ELEV    249.32    249.75                250.65  @  21:00
  LD08 RELEASE      6.3      12.9       7.6        23.8   @  21:00
 
  LD07 HW-ELEV    249.20    249.23                249.14  @  21:00       .04
  LD07 TW-ELEV    231.13    231.14                231.24  @  21:00
  LD07 RELEASE      3.1      14.0       6.8        23.3   @  21:00
 
  LD06 HW-ELEV    231.13    231.05                230.89  @  21:00       .01
  LD06 TW-ELEV    213.73    214.00                214.04  @  21:00
  LD06 RELEASE      1.5      14.4       5.9        24.0   @  21:00
 
  LD05 HW-ELEV    213.91    214.01                213.70  @  21:00    -67.00
  LD05 TW-ELEV    195.65    195.99                196.27  @  21:00
  LD05 RELEASE      1.8      17.0       7.1        24.6   @  21:00
 
  LD04 HW-ELEV    196.06    196.16                196.22  @  21:00       .01
  LD04 TW-ELEV    182.41    182.56                182.76  @  21:00
  LD04 RELEASE      0.0      15.2       7.7        27.3   @  21:00
 
  LD03 HW-ELEV    182.29    182.24                182.16  @  21:00      0.00
  LD03 TW-ELEV    162.75    163.87                164.96  @  21:00
  LD03 RELEASE       .2      15.4       7.7        26.5   @  21:00
 
  L02 HW-ELEV     163.13    163.34                163.21  @  21:00      0.00
 
  D02 HW-ELEV     162.71    162.87                162.83  @  21:00      0.00
  D02 TW-ELEV     120.47    125.67                127.81  @  21:00
  D02 RELEASE        .8      19.0       7.9        24.1   @  21:00
 
  L01 TW-ELEV     123.95    123.73                123.48  @  21:00      0.00
 
  MPLD HW-ELEV    123.10    122.88                122.58  @  21:00       .02	
  MPLD TW-ELEV    122.92    122.67                122.39  @  21:00
 
  WREC DIFF.         .85       .85                   .90
  CLARENDON FLOW   13.06     13.13     13.05       13.03  @  21:00
  HELENA STAGE     11.06     10.82                 10.71  @  21:00
  CAIRO STAGE      20.54     20.56                 20.51  @  21:00
  _____________________________________________________________________________